Time;durP1;ratioP1;P1;durP2;ratioP2;P2;SDS_P1;SDS_P2;PMS_P1;PMS_P2;Temp;Humidity;BMP_temperature;BMP_pressure;BME280_temperature;BME280_humidity;BME280_pressure;Samples;Min_cycle;Max_cycle;Signal;HPM_P1;HPM_P2
2021/04/20 00:01:57;;;;;;;76.05;38.75;;;;;;;;;;5091734;28;20025;-74
2021/04/20 00:04:23;;;;;;;80.68;39.95;;;;;;;;;;5084451;28;20025;-74
2021/04/20 00:06:49;;;;;;;76.93;37.17;;;;;;;;;;5088805;28;20166;-75
2021/04/20 00:09:15;;;;;;;79.95;39.35;;;;;;;;;;5087896;28;20054;-75
2021/04/20 00:11:41;;;;;;;83.15;43.17;;;;;;;;;;5088917;28;20024;-74
2021/04/20 00:14:09;;;;;;;73.43;38.58;;;;;;;;;;5082672;28;20111;-74
2021/04/20 00:16:35;;;;;;;81.50;38.75;;;;;;;;;;5078529;28;20044;-74
2021/04/20 00:19:01;;;;;;;78.40;39.08;;;;;;;;;;5079294;28;20048;-74
2021/04/20 00:21:27;;;;;;;76.53;39.13;;;;;;;;;;5077270;28;20166;-75
2021/04/20 00:23:53;;;;;;;76.80;38.92;;;;;;;;;;5078881;28;20477;-74
2021/04/20 00:26:19;;;;;;;84.30;42.72;;;;;;;;;;5088393;28;20016;-74
2021/04/20 00:28:45;;;;;;;76.63;39.97;;;;;;;;;;5084741;28;20036;-76
2021/04/20 00:31:12;;;;;;;89.97;46.10;;;;;;;;;;5091839;28;20523;-73
2021/04/20 00:33:38;;;;;;;88.30;42.20;;;;;;;;;;5079716;28;20020;-74
2021/04/20 00:36:04;;;;;;;83.22;42.42;;;;;;;;;;5086909;28;20028;-74
2021/04/20 00:38:30;;;;;;;84.13;40.88;;;;;;;;;;5091245;28;20127;-75
2021/04/20 00:41:03;;;;;;;89.78;41.83;;;;;;;;;;5084813;28;20114;-75
2021/04/20 00:43:33;;;;;;;79.60;40.60;;;;;;;;;;5086296;28;20008;-74
2021/04/20 00:45:59;;;;;;;88.80;41.60;;;;;;;;;;5081658;28;20033;-74
2021/04/20 00:48:25;;;;;;;88.35;42.45;;;;;;;;;;5085381;28;20024;-74
2021/04/20 00:50:51;;;;;;;86.63;42.75;;;;;;;;;;5081798;28;20128;-73
2021/04/20 00:53:17;;;;;;;84.30;41.83;;;;;;;;;;5087615;28;20031;-74
2021/04/20 00:55:43;;;;;;;91.30;43.78;;;;;;;;;;5090490;28;20024;-74
2021/04/20 00:58:09;;;;;;;84.25;43.60;;;;;;;;;;5085193;28;20039;-74
2021/04/20 01:00:35;;;;;;;84.15;42.10;;;;;;;;;;5086536;28;20012;-75
2021/04/20 01:03:01;;;;;;;77.25;41.33;;;;;;;;;;5088519;28;20039;-73
2021/04/20 01:05:32;;;;;;;74.90;40.03;;;;;;;;;;5081537;28;20032;-74
2021/04/20 01:08:00;;;;;;;83.55;40.92;;;;;;;;;;5080806;28;20032;-73
2021/04/20 01:10:27;;;;;;;79.88;39.83;;;;;;;;;;5087389;28;20047;-73
2021/04/20 01:12:53;;;;;;;86.90;43.28;;;;;;;;;;5087251;28;20024;-74
2021/04/20 01:15:19;;;;;;;78.60;41.33;;;;;;;;;;5090751;28;20402;-74
2021/04/20 01:17:45;;;;;;;82.38;41.60;;;;;;;;;;5087190;28;20036;-74
2021/04/20 01:20:12;;;;;;;92.55;44.05;;;;;;;;;;5088620;28;20422;-75
2021/04/20 01:22:39;;;;;;;91.90;43.30;;;;;;;;;;5089733;28;20074;-74
2021/04/20 01:25:06;;;;;;;88.60;43.67;;;;;;;;;;5085842;28;20090;-74
2021/04/20 01:27:33;;;;;;;85.60;42.03;;;;;;;;;;5087649;28;20149;-73
2021/04/20 01:30:00;;;;;;;86.00;43.30;;;;;;;;;;5085140;28;20448;-75
2021/04/20 01:32:26;;;;;;;93.18;44.33;;;;;;;;;;5084568;28;20115;-74
2021/04/20 01:34:53;;;;;;;88.82;43.13;;;;;;;;;;5089926;28;20032;-74
2021/04/20 01:37:19;;;;;;;100.28;45.00;;;;;;;;;;5087194;28;20068;-73
2021/04/20 01:39:49;;;;;;;92.03;45.70;;;;;;;;;;5086626;28;20028;-73
2021/04/20 01:42:15;;;;;;;91.00;44.10;;;;;;;;;;5086134;28;20022;-73
2021/04/20 01:44:42;;;;;;;94.20;42.58;;;;;;;;;;5082949;28;20055;-73
2021/04/20 01:47:08;;;;;;;89.72;42.83;;;;;;;;;;5087136;28;20054;-73
2021/04/20 01:49:35;;;;;;;87.22;42.20;;;;;;;;;;5080530;28;20402;-74
2021/04/20 01:52:01;;;;;;;89.22;44.83;;;;;;;;;;5090030;28;20041;-75
2021/04/20 01:54:27;;;;;;;84.43;42.55;;;;;;;;;;5089157;28;20092;-73
2021/04/20 01:56:54;;;;;;;85.75;41.10;;;;;;;;;;5088864;28;20040;-73
2021/04/20 01:59:21;;;;;;;84.35;41.85;;;;;;;;;;5086253;28;20028;-73
2021/04/20 02:01:47;;;;;;;87.10;43.25;;;;;;;;;;5088424;28;20517;-74
2021/04/20 02:04:13;;;;;;;86.32;41.45;;;;;;;;;;5089055;28;20028;-73
2021/04/20 02:06:39;;;;;;;81.60;40.40;;;;;;;;;;5086804;28;20103;-74
2021/04/20 02:09:06;;;;;;;88.53;43.38;;;;;;;;;;5088627;28;20089;-74
2021/04/20 02:11:33;;;;;;;77.10;41.45;;;;;;;;;;5089560;28;20103;-73
2021/04/20 02:14:02;;;;;;;82.68;42.45;;;;;;;;;;5092705;28;20549;-73
2021/04/20 02:16:29;;;;;;;81.68;40.72;;;;;;;;;;5090469;28;20107;-73
2021/04/20 02:18:56;;;;;;;83.43;41.25;;;;;;;;;;5090123;28;20119;-74
2021/04/20 02:21:23;;;;;;;87.45;42.05;;;;;;;;;;5088175;28;20024;-75
2021/04/20 02:23:49;;;;;;;83.93;40.67;;;;;;;;;;5084745;28;20020;-73
2021/04/20 02:26:18;;;;;;;84.18;39.80;;;;;;;;;;5088886;28;20066;-74
2021/04/20 02:28:44;;;;;;;83.32;42.30;;;;;;;;;;5089011;28;20043;-74
2021/04/20 02:31:11;;;;;;;85.68;41.75;;;;;;;;;;5087873;28;20028;-73
2021/04/20 02:33:37;;;;;;;85.43;41.33;;;;;;;;;;5085389;28;20024;-73
2021/04/20 02:36:04;;;;;;;85.45;42.03;;;;;;;;;;5087702;28;20062;-74
2021/04/20 02:38:32;;;;;;;86.93;41.10;;;;;;;;;;5088565;28;20031;-73
2021/04/20 02:40:59;;;;;;;86.30;41.20;;;;;;;;;;5085947;28;20020;-73
2021/04/20 02:43:26;;;;;;;82.15;39.60;;;;;;;;;;5089645;28;20020;-73
2021/04/20 02:45:53;;;;;;;86.10;41.63;;;;;;;;;;5085097;28;20671;-73
2021/04/20 02:48:19;;;;;;;85.15;42.67;;;;;;;;;;5084546;28;20379;-73
2021/04/20 02:50:46;;;;;;;81.50;41.08;;;;;;;;;;5081839;28;20025;-73
2021/04/20 02:53:15;;;;;;;88.70;41.20;;;;;;;;;;5083002;28;20040;-73
2021/04/20 02:55:41;;;;;;;85.57;43.10;;;;;;;;;;5089659;28;20161;-73
2021/04/20 02:58:11;;;;;;;81.82;39.20;;;;;;;;;;5091683;28;20040;-74
2021/04/20 03:00:41;;;;;;;79.50;40.50;;;;;;;;;;5088498;28;20020;-74
2021/04/20 03:03:07;;;;;;;85.55;40.50;;;;;;;;;;5080750;28;20462;-73
2021/04/20 03:05:34;;;;;;;81.32;40.00;;;;;;;;;;5093612;28;20020;-73
2021/04/20 03:08:00;;;;;;;80.20;41.20;;;;;;;;;;5093610;28;20051;-74
2021/04/20 03:10:26;;;;;;;81.32;39.88;;;;;;;;;;5085568;28;20068;-74
2021/04/20 03:12:52;;;;;;;84.70;41.72;;;;;;;;;;5086911;28;20039;-74
2021/04/20 03:15:19;;;;;;;81.65;40.20;;;;;;;;;;5105659;28;20016;-73
2021/04/20 03:17:46;;;;;;;82.65;39.58;;;;;;;;;;5091499;28;20032;-73
2021/04/20 03:20:13;;;;;;;86.20;39.40;;;;;;;;;;5091736;28;20630;-73
2021/04/20 03:22:41;;;;;;;85.38;41.17;;;;;;;;;;5088619;28;20506;-73
2021/04/20 03:25:08;;;;;;;82.57;39.25;;;;;;;;;;5091527;28;20032;-73
2021/04/20 03:27:34;;;;;;;81.82;40.42;;;;;;;;;;5091730;28;20488;-73
2021/04/20 03:30:00;;;;;;;92.20;42.40;;;;;;;;;;5090928;28;20024;-74
2021/04/20 03:32:27;;;;;;;87.25;43.22;;;;;;;;;;5091946;28;20118;-73
2021/04/20 03:34:53;;;;;;;83.95;42.17;;;;;;;;;;5087335;28;20032;-73
2021/04/20 03:37:22;;;;;;;82.22;41.05;;;;;;;;;;5086890;28;20020;-74
2021/04/20 03:39:50;;;;;;;82.40;41.28;;;;;;;;;;5088360;28;20044;-73
2021/04/20 03:42:21;;;;;;;86.63;41.53;;;;;;;;;;5083247;28;20471;-73
2021/04/20 03:44:57;;;;;;;81.35;40.97;;;;;;;;;;5091644;28;20020;-73
2021/04/20 03:47:29;;;;;;;86.43;40.97;;;;;;;;;;5087676;28;20032;-73
2021/04/20 03:49:57;;;;;;;85.63;42.20;;;;;;;;;;5077862;28;20043;-73
2021/04/20 03:52:29;;;;;;;89.13;42.78;;;;;;;;;;5079841;28;20020;-73
2021/04/20 03:54:56;;;;;;;83.88;39.65;;;;;;;;;;5091572;28;20023;-73
2021/04/20 03:57:22;;;;;;;88.90;41.13;;;;;;;;;;5089859;28;20035;-73
2021/04/20 03:59:49;;;;;;;81.07;39.70;;;;;;;;;;5090819;28;20398;-73
2021/04/20 04:02:16;;;;;;;86.53;40.63;;;;;;;;;;5090184;28;20024;-73
2021/04/20 04:04:44;;;;;;;87.68;41.55;;;;;;;;;;5090739;28;20081;-74
2021/04/20 04:07:13;;;;;;;85.00;42.10;;;;;;;;;;5091840;28;20032;-74
2021/04/20 04:09:40;;;;;;;92.63;44.42;;;;;;;;;;5077286;28;20025;-73
2021/04/20 04:12:10;;;;;;;84.57;42.20;;;;;;;;;;5085346;28;20029;-74
2021/04/20 04:14:37;;;;;;;86.93;43.38;;;;;;;;;;5086368;28;20024;-73
2021/04/20 04:17:05;;;;;;;84.75;41.25;;;;;;;;;;5090830;28;20028;-74
2021/04/20 04:19:36;;;;;;;88.55;41.72;;;;;;;;;;5084764;28;20387;-74
2021/04/20 04:22:04;;;;;;;87.72;41.40;;;;;;;;;;5081204;28;20049;-74
2021/04/20 04:24:34;;;;;;;83.15;38.50;;;;;;;;;;5088375;28;20021;-73
2021/04/20 04:27:02;;;;;;;88.30;43.10;;;;;;;;;;5091396;28;20115;-73
2021/04/20 04:29:29;;;;;;;90.63;39.85;;;;;;;;;;5089687;28;20028;-74
2021/04/20 04:31:55;;;;;;;84.05;40.30;;;;;;;;;;5079247;28;20032;-73
2021/04/20 04:34:21;;;;;;;88.80;40.92;;;;;;;;;;5083050;28;20040;-73
2021/04/20 04:36:47;;;;;;;85.18;42.10;;;;;;;;;;5089908;28;20034;-75
2021/04/20 04:39:15;;;;;;;83.57;39.90;;;;;;;;;;5086383;28;20063;-73
2021/04/20 04:41:42;;;;;;;82.20;39.72;;;;;;;;;;5083515;28;20531;-74
2021/04/20 04:44:10;;;;;;;90.00;42.25;;;;;;;;;;5087915;28;20539;-73
2021/04/20 04:46:36;;;;;;;84.07;40.10;;;;;;;;;;5088982;28;20070;-74
2021/04/20 04:49:02;;;;;;;82.53;40.13;;;;;;;;;;5088544;28;20127;-73
2021/04/20 04:51:28;;;;;;;82.15;39.28;;;;;;;;;;5089014;28;20040;-73
2021/04/20 04:53:56;;;;;;;79.70;40.20;;;;;;;;;;5088492;28;20154;-73
2021/04/20 04:56:22;;;;;;;84.43;40.30;;;;;;;;;;5091375;28;20020;-74
2021/04/20 04:58:50;;;;;;;82.82;39.70;;;;;;;;;;5088564;28;20051;-73
2021/04/20 05:01:17;;;;;;;79.03;40.08;;;;;;;;;;5091307;28;20099;-73
2021/04/20 05:03:43;;;;;;;85.20;40.47;;;;;;;;;;5089892;28;20047;-73
2021/04/20 05:06:13;;;;;;;93.00;42.72;;;;;;;;;;5090821;28;20024;-73
2021/04/20 05:08:39;;;;;;;87.70;42.85;;;;;;;;;;5088102;28;20040;-74
2021/04/20 05:11:05;;;;;;;82.93;40.20;;;;;;;;;;5087805;28;20024;-73
2021/04/20 05:13:31;;;;;;;84.47;40.10;;;;;;;;;;5083518;28;20077;-73
2021/04/20 05:16:04;;;;;;;85.07;41.20;;;;;;;;;;5082453;28;20119;-74
2021/04/20 05:18:31;;;;;;;90.07;41.50;;;;;;;;;;5082897;28;20127;-74
2021/04/20 05:20:57;;;;;;;90.82;41.20;;;;;;;;;;5089735;28;20028;-74
2021/04/20 05:23:23;;;;;;;88.45;43.85;;;;;;;;;;5084619;28;20142;-73
2021/04/20 05:25:52;;;;;;;94.13;43.20;;;;;;;;;;5090043;28;20012;-74
2021/04/20 05:28:18;;;;;;;93.43;44.50;;;;;;;;;;5089595;28;20646;-74
2021/04/20 05:30:44;;;;;;;102.13;46.22;;;;;;;;;;5078764;28;20445;-74
2021/04/20 05:33:13;;;;;;;104.20;46.45;;;;;;;;;;5090997;28;20403;-74
2021/04/20 05:35:39;;;;;;;100.18;46.30;;;;;;;;;;5084844;28;20098;-75
2021/04/20 05:38:05;;;;;;;95.65;45.97;;;;;;;;;;5084964;28;20039;-74
2021/04/20 05:40:36;;;;;;;96.85;46.55;;;;;;;;;;5086934;28;20032;-74
2021/04/20 05:43:02;;;;;;;98.97;44.97;;;;;;;;;;5082125;28;20062;-75
2021/04/20 05:45:28;;;;;;;103.63;47.10;;;;;;;;;;5086169;28;20035;-74
2021/04/20 05:47:55;;;;;;;98.78;46.75;;;;;;;;;;5088688;28;20075;-74
2021/04/20 05:50:21;;;;;;;103.68;48.25;;;;;;;;;;5085560;28;20021;-75
2021/04/20 05:52:47;;;;;;;111.88;51.67;;;;;;;;;;5081039;28;20055;-74
2021/04/20 05:55:14;;;;;;;109.35;48.15;;;;;;;;;;5088129;28;20024;-74
2021/04/20 05:57:40;;;;;;;102.38;50.65;;;;;;;;;;5085224;28;20556;-75
2021/04/20 06:00:07;;;;;;;111.85;51.70;;;;;;;;;;5084555;28;20486;-75
2021/04/20 06:02:34;;;;;;;102.70;47.95;;;;;;;;;;5088043;28;20031;-74
2021/04/20 06:05:02;;;;;;;108.45;51.05;;;;;;;;;;5086771;28;20099;-75
2021/04/20 06:07:29;;;;;;;112.07;52.53;;;;;;;;;;5087391;28;20024;-74
2021/04/20 06:09:56;;;;;;;113.30;54.42;;;;;;;;;;5081152;28;20025;-75
2021/04/20 06:12:22;;;;;;;112.40;53.13;;;;;;;;;;5085091;28;20089;-74
2021/04/20 06:14:51;;;;;;;113.55;54.95;;;;;;;;;;5090037;28;20028;-74
2021/04/20 06:17:18;;;;;;;125.82;57.38;;;;;;;;;;5085857;28;20059;-76
2021/04/20 06:19:44;;;;;;;127.70;60.35;;;;;;;;;;5082237;28;20052;-75
2021/04/20 06:22:12;;;;;;;120.72;58.55;;;;;;;;;;5086420;28;20480;-75
2021/04/20 06:24:39;;;;;;;119.30;57.08;;;;;;;;;;5082472;28;20028;-75
2021/04/20 06:27:05;;;;;;;137.40;65.85;;;;;;;;;;5088076;28;20053;-76
2021/04/20 06:29:31;;;;;;;142.32;66.93;;;;;;;;;;5084527;28;20043;-75
2021/04/20 06:31:58;;;;;;;141.60;67.25;;;;;;;;;;5087820;28;20036;-76
2021/04/20 06:34:24;;;;;;;147.93;71.70;;;;;;;;;;5085853;28;20028;-75
2021/04/20 06:36:53;;;;;;;147.90;73.65;;;;;;;;;;5078496;28;20628;-76
2021/04/20 06:39:20;;;;;;;150.75;70.07;;;;;;;;;;5083290;28;20470;-76
2021/04/20 06:41:54;;;;;;;154.15;77.07;;;;;;;;;;5087300;28;20020;-75
2021/04/20 06:44:26;;;;;;;152.38;74.85;;;;;;;;;;5083344;28;20024;-75
2021/04/20 06:46:51;;;;;;;;;;;;;;;;;;5074316;28;20264;-77
2021/04/20 06:49:44;;;;;;;145.43;74.90;;;;;;;;;;5089280;28;20569;-75
2021/04/20 06:52:10;;;;;;;;;;;;;;;;;;5054469;28;20043;-76
2021/04/20 06:54:40;;;;;;;150.63;75.60;;;;;;;;;;5082599;28;19926;-75
2021/04/20 06:57:16;;;;;;;154.23;79.13;;;;;;;;;;5080526;28;20016;-75
2021/04/20 06:59:51;;;;;;;148.93;74.13;;;;;;;;;;5084781;28;20551;-77
2021/04/20 07:02:18;;;;;;;144.52;75.15;;;;;;;;;;5080358;28;20020;-77
2021/04/20 07:04:45;;;;;;;142.13;74.93;;;;;;;;;;5090790;28;20069;-76
2021/04/20 07:07:11;;;;;;;141.30;75.38;;;;;;;;;;5085769;28;20024;-75
2021/04/20 07:09:42;;;;;;;140.05;77.38;;;;;;;;;;5084495;28;20020;-76
2021/04/20 07:12:11;;;;;;;139.52;75.03;;;;;;;;;;5084866;28;21784;-76
2021/04/20 07:14:43;;;;;;;146.75;75.93;;;;;;;;;;5085903;28;20383;-76
2021/04/20 07:17:28;;;;;;;146.18;77.05;;;;;;;;;;5087745;28;20024;-75
2021/04/20 07:19:54;;;;;;;138.10;76.68;;;;;;;;;;5085011;28;20044;-76
2021/04/20 07:22:37;;;;;;;132.93;71.25;;;;;;;;;;5088660;28;20035;-76
2021/04/20 07:25:06;;;;;;;133.38;71.85;;;;;;;;;;5084287;28;20024;-75
2021/04/20 07:27:32;;;;;;;127.15;71.90;;;;;;;;;;5086746;28;20024;-74
2021/04/20 07:30:08;;;;;;;132.88;70.57;;;;;;;;;;5083573;28;20508;-74
2021/04/20 07:32:34;;;;;;;135.32;74.47;;;;;;;;;;5088369;28;20024;-75
2021/04/20 07:35:09;;;;;;;137.68;71.75;;;;;;;;;;5088362;28;20024;-74
2021/04/20 07:37:41;;;;;;;132.40;72.75;;;;;;;;;;5085974;28;20027;-73
2021/04/20 07:40:25;;;;;;;127.28;68.03;;;;;;;;;;5083919;28;20032;-75
2021/04/20 07:43:11;;;;;;;130.45;69.88;;;;;;;;;;5086504;28;20031;-74
2021/04/20 07:46:00;;;;;;;125.65;70.60;;;;;;;;;;5087324;28;20107;-73
2021/04/20 07:48:41;;;;;;;135.13;72.95;;;;;;;;;;5086226;28;20509;-73
2021/04/20 07:51:09;;;;;;;127.25;69.40;;;;;;;;;;5085758;28;20038;-74
2021/04/20 07:53:40;;;;;;;124.93;66.88;;;;;;;;;;5090136;28;20490;-74
2021/04/20 07:56:11;;;;;;;127.45;70.97;;;;;;;;;;5088503;28;20509;-73
2021/04/20 07:58:43;;;;;;;129.48;67.55;;;;;;;;;;5085831;28;20493;-73
2021/04/20 08:01:09;;;;;;;;;;;;;;;;;;5086971;28;20023;-74
2021/04/20 08:03:43;;;;;;;128.45;70.10;;;;;;;;;;5090234;28;19953;-73
2021/04/20 08:06:10;;;;;;;125.43;67.90;;;;;;;;;;5085964;28;20037;-73
2021/04/20 08:08:48;;;;;;;119.75;67.28;;;;;;;;;;5086971;28;20436;-74
2021/04/20 08:11:14;;;;;;;117.22;64.32;;;;;;;;;;5080529;28;20024;-73
2021/04/20 08:13:43;;;;;;;114.13;64.55;;;;;;;;;;5087873;28;20085;-73
2021/04/20 08:16:19;;;;;;;109.28;61.33;;;;;;;;;;5086170;28;20040;-73
2021/04/20 08:19:00;;;;;;;111.38;60.10;;;;;;;;;;5079925;28;20044;-73
2021/04/20 08:21:30;;;;;;;107.20;62.38;;;;;;;;;;5089076;28;20035;-73
2021/04/20 08:23:56;;;;;;;109.43;63.33;;;;;;;;;;5088378;28;20089;-73
2021/04/20 08:26:27;;;;;;;115.28;63.55;;;;;;;;;;5090316;28;20023;-73
2021/04/20 08:29:01;;;;;;;109.55;62.10;;;;;;;;;;5084969;28;20028;-73
2021/04/20 08:31:46;;;;;;;110.05;61.78;;;;;;;;;;5087226;28;21061;-73
2021/04/20 08:34:12;;;;;;;106.25;60.30;;;;;;;;;;5089728;28;20062;-73
2021/04/20 08:36:49;;;;;;;110.80;63.70;;;;;;;;;;5089184;28;20024;-73
2021/04/20 08:39:19;;;;;;;107.25;60.20;;;;;;;;;;5083945;28;20059;-73
2021/04/20 08:41:51;;;;;;;104.72;59.80;;;;;;;;;;5087509;28;20020;-73
2021/04/20 08:44:36;;;;;;;104.00;65.10;;;;;;;;;;5089379;28;20031;-73
2021/04/20 08:47:08;;;;;;;107.07;63.08;;;;;;;;;;5088982;28;20019;-74
2021/04/20 08:49:45;;;;;;;112.38;65.80;;;;;;;;;;5078864;28;20040;-72
2021/04/20 08:52:30;;;;;;;108.82;63.10;;;;;;;;;;5089192;28;20020;-72
2021/04/20 08:55:02;;;;;;;109.80;63.97;;;;;;;;;;5085523;28;20048;-72
2021/04/20 08:57:35;;;;;;;112.95;67.07;;;;;;;;;;5088286;28;20050;-73
2021/04/20 09:00:04;;;;;;;111.75;65.32;;;;;;;;;;5085565;28;20040;-74
2021/04/20 09:02:45;;;;;;;112.72;66.97;;;;;;;;;;5086764;28;20051;-73
2021/04/20 09:05:14;;;;;;;116.63;67.95;;;;;;;;;;5088090;28;20024;-73
2021/04/20 09:07:40;;;;;;;107.97;62.95;;;;;;;;;;5088261;28;20149;-72
2021/04/20 09:10:10;;;;;;;116.82;67.55;;;;;;;;;;5087537;28;20032;-73
2021/04/20 09:12:36;;;;;;;110.55;65.30;;;;;;;;;;5089712;28;20028;-73
2021/04/20 09:15:03;;;;;;;117.97;68.45;;;;;;;;;;5090111;28;20447;-73
2021/04/20 09:17:37;;;;;;;110.65;64.28;;;;;;;;;;5089048;28;20115;-73
2021/04/20 09:20:07;;;;;;;114.18;65.10;;;;;;;;;;5085976;28;20085;-73
2021/04/20 09:22:52;;;;;;;104.00;64.28;;;;;;;;;;5088026;28;20028;-74
2021/04/20 09:25:25;;;;;;;110.05;63.95;;;;;;;;;;5086361;28;20028;-74
2021/04/20 09:27:57;;;;;;;114.53;68.25;;;;;;;;;;5085796;28;20201;-73
2021/04/20 09:30:24;;;;;;;114.45;70.25;;;;;;;;;;5086465;28;20027;-73
2021/04/20 09:32:50;;;;;;;108.32;66.78;;;;;;;;;;5086358;28;20111;-73
2021/04/20 09:35:16;;;;;;;114.43;67.88;;;;;;;;;;5085702;28;20095;-73
2021/04/20 09:37:44;;;;;;;114.03;66.43;;;;;;;;;;5089028;28;20035;-73
2021/04/20 09:40:17;;;;;;;112.60;66.72;;;;;;;;;;5085338;28;20019;-73
2021/04/20 09:42:46;;;;;;;113.65;67.63;;;;;;;;;;5087332;28;20451;-73
2021/04/20 09:45:14;;;;;;;114.32;67.60;;;;;;;;;;5086533;28;20016;-73
2021/04/20 09:47:40;;;;;;;118.43;69.35;;;;;;;;;;5086110;28;20020;-74
2021/04/20 09:50:12;;;;;;;108.38;63.85;;;;;;;;;;5082602;28;20025;-74
2021/04/20 09:52:45;;;;;;;109.03;64.75;;;;;;;;;;5080437;28;20062;-74
2021/04/20 09:55:17;;;;;;;112.05;64.50;;;;;;;;;;5080298;28;20436;-73
2021/04/20 09:57:46;;;;;;;111.32;66.22;;;;;;;;;;5080788;28;20047;-72
2021/04/20 10:00:14;;;;;;;109.45;66.28;;;;;;;;;;5081204;28;20032;-73
2021/04/20 10:02:55;;;;;;;108.53;65.60;;;;;;;;;;5080255;28;20509;-73
2021/04/20 10:05:27;;;;;;;116.03;67.63;;;;;;;;;;5082869;28;20115;-72
2021/04/20 10:08:06;;;;;;;110.82;68.40;;;;;;;;;;5085141;28;20044;-73
2021/04/20 10:10:32;;;;;;;111.57;67.50;;;;;;;;;;5079032;28;20440;-73
2021/04/20 10:13:02;;;;;;;114.20;67.25;;;;;;;;;;5082583;28;20367;-73
2021/04/20 10:15:47;;;;;;;85.97;54.50;;;;;;;;;;5082748;28;20024;-73
2021/04/20 10:18:32;;;;;;;84.88;53.70;;;;;;;;;;5077482;28;20024;-73
2021/04/20 10:21:05;;;;;;;77.95;48.75;;;;;;;;;;5076398;28;20020;-73
2021/04/20 10:23:37;;;;;;;69.35;48.53;;;;;;;;;;5079868;28;20259;-72
2021/04/20 10:26:11;;;;;;;63.38;43.70;;;;;;;;;;5085340;28;20100;-72
2021/04/20 10:28:43;;;;;;;62.97;42.38;;;;;;;;;;5076342;28;20024;-72
2021/04/20 10:31:09;;;;;;;;;;;;;;;;;;5082214;28;20028;-74
2021/04/20 10:33:36;;;;;;;65.05;40.63;;;;;;;;;;5085061;28;19961;-72
2021/04/20 10:36:02;;;;;;;65.30;42.50;;;;;;;;;;5085110;28;20029;-72
2021/04/20 10:38:29;;;;;;;65.03;43.78;;;;;;;;;;5084776;28;20032;-73
2021/04/20 10:40:56;;;;;;;59.55;41.17;;;;;;;;;;5086212;28;20016;-73
2021/04/20 10:43:23;;;;;;;55.20;38.88;;;;;;;;;;5085549;28;20020;-73
2021/04/20 10:45:50;;;;;;;54.88;37.97;;;;;;;;;;5086768;28;20028;-72
2021/04/20 10:48:17;;;;;;;55.15;39.40;;;;;;;;;;5080920;28;20046;-74
2021/04/20 10:50:48;;;;;;;60.55;40.85;;;;;;;;;;5073456;28;20390;-73
2021/04/20 10:53:18;;;;;;;61.17;40.75;;;;;;;;;;5085730;28;20098;-72
2021/04/20 10:55:48;;;;;;;63.90;44.28;;;;;;;;;;5084838;28;20032;-72
2021/04/20 10:58:20;;;;;;;57.67;40.50;;;;;;;;;;5085215;28;21509;-73
2021/04/20 11:00:48;;;;;;;64.53;42.28;;;;;;;;;;5083447;28;20067;-71
2021/04/20 11:03:14;;;;;;;62.60;40.47;;;;;;;;;;5078924;28;20035;-72
2021/04/20 11:05:47;;;;;;;61.03;43.20;;;;;;;;;;5085166;28;20414;-72
2021/04/20 11:08:21;;;;;;;60.65;41.03;;;;;;;;;;5084788;28;20028;-73
2021/04/20 11:10:47;;;;;;;72.50;48.25;;;;;;;;;;5081062;28;20027;-73
2021/04/20 11:13:13;;;;;;;73.10;47.83;;;;;;;;;;5081545;28;20035;-73
2021/04/20 11:15:39;;;;;;;75.10;47.08;;;;;;;;;;5084248;28;20549;-73
2021/04/20 11:18:11;;;;;;;71.78;46.95;;;;;;;;;;5087291;28;20024;-73
2021/04/20 11:20:44;;;;;;;78.30;50.67;;;;;;;;;;5088451;28;20106;-73
2021/04/20 11:23:14;;;;;;;84.25;51.13;;;;;;;;;;5085010;28;20032;-74
2021/04/20 11:25:40;;;;;;;88.78;54.40;;;;;;;;;;5090425;28;20106;-74
2021/04/20 11:28:09;;;;;;;85.07;53.33;;;;;;;;;;5083784;28;20032;-73
2021/04/20 11:30:37;;;;;;;74.78;49.58;;;;;;;;;;5086067;28;20050;-72
2021/04/20 11:33:26;;;;;;;79.80;51.60;;;;;;;;;;5087078;28;20040;-73
2021/04/20 11:35:52;;;;;;;67.28;44.38;;;;;;;;;;5083204;28;20244;-73
2021/04/20 11:38:18;;;;;;;79.05;49.38;;;;;;;;;;5087422;28;20167;-73
2021/04/20 11:40:57;;;;;;;72.35;48.05;;;;;;;;;;5086480;28;20012;-72
2021/04/20 11:43:26;;;;;;;66.65;45.05;;;;;;;;;;5089339;28;20020;-72
2021/04/20 11:45:53;;;;;;;66.68;45.78;;;;;;;;;;5087988;28;20019;-73
2021/04/20 11:48:25;;;;;;;66.50;43.88;;;;;;;;;;5087827;28;20031;-73
2021/04/20 11:50:53;;;;;;;65.82;43.45;;;;;;;;;;5081048;28;20024;-72
2021/04/20 11:53:20;;;;;;;69.45;42.42;;;;;;;;;;5089479;28;20048;-72
2021/04/20 11:55:47;;;;;;;72.10;45.17;;;;;;;;;;5079522;28;20552;-73
2021/04/20 11:58:20;;;;;;;67.18;44.35;;;;;;;;;;5083906;28;20049;-71
2021/04/20 12:00:46;;;;;;;66.43;43.13;;;;;;;;;;5082796;28;20016;-72
2021/04/20 12:03:14;;;;;;;75.07;47.63;;;;;;;;;;5084946;28;20027;-73
2021/04/20 12:05:41;;;;;;;71.63;45.63;;;;;;;;;;5082203;28;20027;-72
2021/04/20 12:08:09;;;;;;;65.68;42.17;;;;;;;;;;5088666;28;20398;-72
2021/04/20 12:10:35;;;;;;;70.63;46.20;;;;;;;;;;5082208;28;20016;-72
2021/04/20 12:13:04;;;;;;;68.38;44.13;;;;;;;;;;5086510;28;20030;-72
2021/04/20 12:15:30;;;;;;;70.47;46.00;;;;;;;;;;5083852;28;20038;-72
2021/04/20 12:17:57;;;;;;;81.55;51.88;;;;;;;;;;5085497;28;20050;-73
2021/04/20 12:20:26;;;;;;;76.85;50.67;;;;;;;;;;5085289;28;20028;-72
2021/04/20 12:22:53;;;;;;;64.95;42.35;;;;;;;;;;5087579;28;20016;-71
2021/04/20 12:25:20;;;;;;;64.63;40.88;;;;;;;;;;5082932;28;20050;-73
2021/04/20 12:27:51;;;;;;;60.92;39.40;;;;;;;;;;5088964;28;20020;-73
2021/04/20 12:30:18;;;;;;;70.70;43.33;;;;;;;;;;5081082;28;20161;-72
2021/04/20 12:32:44;;;;;;;69.90;40.95;;;;;;;;;;5084322;28;20284;-72
2021/04/20 12:35:11;;;;;;;71.38;46.65;;;;;;;;;;5081187;28;20028;-72
2021/04/20 12:37:37;;;;;;;71.93;46.90;;;;;;;;;;5080183;28;20113;-72
2021/04/20 12:40:05;;;;;;;85.32;52.05;;;;;;;;;;5079409;28;20040;-73
2021/04/20 12:42:35;;;;;;;87.63;54.95;;;;;;;;;;5086357;28;20020;-72
2021/04/20 12:45:12;;;;;;;89.82;57.13;;;;;;;;;;5085320;28;20504;-73
2021/04/20 12:47:39;;;;;;;90.00;55.00;;;;;;;;;;5081707;28;20497;-72
2021/04/20 12:50:07;;;;;;;92.55;57.90;;;;;;;;;;5078050;28;20020;-72
2021/04/20 12:52:33;;;;;;;89.38;56.47;;;;;;;;;;5083888;28;20230;-73
2021/04/20 12:55:01;;;;;;;94.13;60.30;;;;;;;;;;5079643;28;21284;-72
2021/04/20 12:57:32;;;;;;;90.68;54.58;;;;;;;;;;5087033;28;20543;-73
2021/04/20 13:00:01;;;;;;;90.18;56.30;;;;;;;;;;5082193;28;20069;-72
2021/04/20 13:02:27;;;;;;;95.47;58.85;;;;;;;;;;5078857;28;20027;-72
2021/04/20 13:05:00;;;;;;;97.90;58.78;;;;;;;;;;5085050;28;20069;-72
2021/04/20 13:07:26;;;;;;;100.53;62.47;;;;;;;;;;5083692;28;20024;-73
2021/04/20 13:09:53;;;;;;;96.97;60.42;;;;;;;;;;5083440;28;20046;-73
2021/04/20 13:12:23;;;;;;;106.75;65.97;;;;;;;;;;5083942;28;21232;-74
2021/04/20 13:14:50;;;;;;;107.95;64.00;;;;;;;;;;5083928;28;20494;-73
2021/04/20 13:17:20;;;;;;;97.35;59.05;;;;;;;;;;5085697;28;20111;-74
2021/04/20 13:19:53;;;;;;;91.05;55.55;;;;;;;;;;5079818;28;20497;-73
2021/04/20 13:22:20;;;;;;;84.90;51.78;;;;;;;;;;5079552;28;20020;-74
2021/04/20 13:24:46;;;;;;;89.00;57.78;;;;;;;;;;5082361;28;20032;-73
2021/04/20 13:27:13;;;;;;;87.00;53.88;;;;;;;;;;5085001;28;20106;-74
2021/04/20 13:29:40;;;;;;;92.03;56.15;;;;;;;;;;5082303;28;20141;-74
2021/04/20 13:32:07;;;;;;;98.32;60.65;;;;;;;;;;5085656;28;20054;-75
2021/04/20 13:34:41;;;;;;;86.90;54.25;;;;;;;;;;5078363;28;20032;-73
2021/04/20 13:37:10;;;;;;;87.63;52.88;;;;;;;;;;5080738;28;20038;-72
2021/04/20 13:39:37;;;;;;;92.78;56.17;;;;;;;;;;5076811;28;20093;-73
2021/04/20 13:42:08;;;;;;;103.25;59.42;;;;;;;;;;5078795;28;20016;-73
2021/04/20 13:44:36;;;;;;;97.97;62.25;;;;;;;;;;5076953;28;20032;-73
2021/04/20 13:47:04;;;;;;;113.78;65.80;;;;;;;;;;5077139;28;20059;-74
2021/04/20 13:49:30;;;;;;;102.68;61.35;;;;;;;;;;5077286;28;20462;-74
2021/04/20 13:52:09;;;;;;;105.72;57.88;;;;;;;;;;5078919;28;20525;-72
2021/04/20 13:54:36;;;;;;;93.60;53.15;;;;;;;;;;5078888;28;20060;-72
2021/04/20 13:57:09;;;;;;;82.47;48.17;;;;;;;;;;5077809;28;20027;-74
2021/04/20 13:59:39;;;;;;;87.28;48.60;;;;;;;;;;5074247;28;20020;-74
2021/04/20 14:02:12;;;;;;;81.05;47.92;;;;;;;;;;5074742;28;20170;-73
2021/04/20 14:04:42;;;;;;;81.22;47.05;;;;;;;;;;5074643;28;20482;-73
2021/04/20 14:07:15;;;;;;;89.18;48.50;;;;;;;;;;5075030;28;20058;-72
2021/04/20 14:09:49;;;;;;;83.95;48.67;;;;;;;;;;5073795;28;20028;-73
2021/04/20 14:12:33;;;;;;;86.97;47.92;;;;;;;;;;5077994;28;20040;-72
2021/04/20 14:15:08;;;;;;;84.32;48.97;;;;;;;;;;5076818;28;20040;-73
2021/04/20 14:17:44;;;;;;;97.18;54.58;;;;;;;;;;5080662;28;20256;-74
2021/04/20 14:20:14;;;;;;;97.00;55.78;;;;;;;;;;5082761;28;20044;-73
2021/04/20 14:22:41;;;;;;;99.85;54.97;;;;;;;;;;5089123;28;20504;-71
2021/04/20 14:25:08;;;;;;;101.97;56.67;;;;;;;;;;5089488;28;20020;-72